Time;durP1;ratioP1;P1;durP2;ratioP2;P2;SDS_P1;SDS_P2;PMS_P1;PMS_P2;Temp;Humidity;BMP_temperature;BMP_pressure;BME280_temperature;BME280_humidity;BME280_pressure;Samples;Min_cycle;Max_cycle;Signal;HPM_P1;HPM_P2
2022/06/07 00:00:09;;;;;;;3.50;3.20;;;;;;;14.44;63.68;100753.53;682809;29;1040;-79
2022/06/07 00:00:31;;;;;;;3.60;3.30;;;;;;;14.48;63.77;100763.22;682230;28;2192;-80
2022/06/07 00:00:51;;;;;;;3.90;3.50;;;;;;;14.48;63.38;100762.31;680151;28;1359;-79
2022/06/07 00:01:12;;;;;;;4.22;3.67;;;;;;;14.53;63.75;100771.16;680255;29;969;-79
2022/06/07 00:01:33;;;;;;;4.00;3.60;;;;;;;14.44;63.53;100753.53;683093;28;1005;-79
2022/06/07 00:01:54;;;;;;;3.70;3.38;;;;;;;14.49;63.85;100766.72;682801;29;1120;-79
2022/06/07 00:02:19;;;;;;;4.53;3.50;;;;;;;14.44;64.07;100758.78;680163;29;1299;-79
2022/06/07 00:02:40;;;;;;;5.07;3.60;;;;;;;14.47;63.74;100766.72;682597;28;1413;-79
2022/06/07 00:03:01;;;;;;;4.87;3.70;;;;;;;14.47;63.74;100763.19;682749;29;1155;-79
2022/06/07 00:03:22;;;;;;;5.20;4.10;;;;;;;14.47;64.04;100763.19;685355;28;1315;-79
2022/06/07 00:03:43;;;;;;;4.80;4.10;;;;;;;14.42;64.16;100755.25;682465;29;1080;-79
2022/06/07 00:04:05;;;;;;;4.60;4.10;;;;;;;14.44;64.20;100760.53;680227;29;1010;-79
2022/06/07 00:04:26;;;;;;;4.30;3.80;;;;;;;14.38;64.14;100753.47;682243;28;1381;-79
2022/06/07 00:04:46;;;;;;;4.35;3.70;;;;;;;14.39;64.03;100752.63;680322;29;1183;-79
2022/06/07 00:05:08;;;;;;;3.90;3.50;;;;;;;14.36;64.11;100750.81;682707;29;1362;-80
2022/06/07 00:05:29;;;;;;;4.15;3.75;;;;;;;14.41;64.15;100763.13;680501;29;1247;-79
2022/06/07 00:05:50;;;;;;;4.28;3.88;;;;;;;14.37;64.15;100756.94;682868;29;1202;-79
2022/06/07 00:06:11;;;;;;;4.20;3.80;;;;;;;14.35;64.09;100756.94;679903;29;1158;-79
2022/06/07 00:06:31;;;;;;;4.13;3.72;;;;;;;14.32;64.34;100748.16;683337;28;1322;-79
2022/06/07 00:07:02;;;;;;;4.07;3.67;;;;;;;14.34;64.47;100749.03;685465;28;1414;-79
2022/06/07 00:07:26;;;;;;;4.60;3.80;;;;;;;14.36;64.27;100755.19;682806;29;993;-79
2022/06/07 00:07:47;;;;;;;4.40;3.80;;;;;;;14.32;64.16;100745.53;680265;29;1320;-79
2022/06/07 00:08:07;;;;;;;4.07;3.78;;;;;;;14.38;64.34;100761.34;682863;29;997;-79
2022/06/07 00:08:31;;;;;;;4.07;3.70;;;;;;;14.32;64.35;100753.41;683023;28;1903;-79
2022/06/07 00:08:51;;;;;;;3.80;3.47;;;;;;;14.32;64.52;100753.41;680099;28;1246;-79
2022/06/07 00:09:12;;;;;;;3.67;3.38;;;;;;;14.34;64.37;100756.91;681803;29;1673;-79
2022/06/07 00:09:33;;;;;;;3.80;3.50;;;;;;;14.31;64.25;100751.66;680462;29;1188;-79
2022/06/07 00:09:54;;;;;;;4.10;3.78;;;;;;;14.35;64.59;100763.94;685306;28;1259;-80
2022/06/07 00:10:16;;;;;;;4.35;3.95;;;;;;;14.29;64.51;100759.50;682701;28;1399;-79
2022/06/07 00:10:37;;;;;;;4.32;3.92;;;;;;;14.33;64.58;100770.91;685553;28;1081;-79
2022/06/07 00:10:58;;;;;;;4.20;3.80;;;;;;;14.30;64.48;100756.00;688066;28;839;-80
2022/06/07 00:11:20;;;;;;;4.57;4.15;;;;;;;14.29;64.52;100758.59;682796;28;1012;-79
2022/06/07 00:11:40;;;;;;;5.30;4.32;;;;;;;14.21;64.54;100741.00;680855;28;1604;-79
2022/06/07 00:12:02;;;;;;;5.95;4.40;;;;;;;14.26;64.76;100751.59;680081;28;1193;-79
2022/06/07 00:12:24;;;;;;;5.53;4.60;;;;;;;14.25;64.99;100758.56;680023;29;1495;-79
2022/06/07 00:12:44;;;;;;;5.20;4.70;;;;;;;14.21;64.52;100751.50;685177;28;1131;-79
2022/06/07 00:13:06;;;;;;;5.30;4.80;;;;;;;14.22;64.84;100748.03;682733;29;1127;-79
2022/06/07 00:13:27;;;;;;;5.32;4.82;;;;;;;14.25;64.85;100758.56;682749;28;1226;-79
2022/06/07 00:13:48;;;;;;;5.40;4.90;;;;;;;14.31;64.93;100770.88;688073;28;1269;-80
2022/06/07 00:14:09;;;;;;;5.47;4.97;;;;;;;14.23;64.96;100754.16;685433;28;982;-78
2022/06/07 00:14:31;;;;;;;5.20;4.70;;;;;;;14.28;65.13;100756.84;687463;28;1488;-79
2022/06/07 00:14:53;;;;;;;5.13;4.63;;;;;;;14.30;64.94;100765.59;685368;28;1375;-79
2022/06/07 00:15:14;;;;;;;5.10;4.60;;;;;;;14.32;64.90;100763.91;682932;28;1093;-79
2022/06/07 00:15:34;;;;;;;5.78;4.88;;;;;;;14.24;64.91;100756.81;681107;29;1154;-79
2022/06/07 00:15:55;;;;;;;5.57;4.97;;;;;;;14.25;64.90;100742.81;679950;29;1221;-79
2022/06/07 00:16:17;;;;;;;5.45;4.90;;;;;;;14.32;64.90;100750.78;677581;29;1100;-79
2022/06/07 00:16:38;;;;;;;5.30;4.80;;;;;;;14.33;65.02;100757.78;683360;28;1081;-79
2022/06/07 00:17:12;;;;;;;5.20;4.70;;;;;;;14.32;64.95;100749.00;688267;28;1169;-78
2022/06/07 00:17:32;;;;;;;5.30;4.80;;;;;;;14.42;64.86;100764.88;683407;28;1235;-79
2022/06/07 00:17:53;;;;;;;5.30;4.80;;;;;;;14.37;64.98;100749.97;685433;28;1153;-79
2022/06/07 00:18:14;;;;;;;5.47;4.97;;;;;;;14.39;64.93;100750.00;688012;28;1169;-79
2022/06/07 00:18:35;;;;;;;5.40;4.90;;;;;;;14.42;64.92;100754.38;685320;28;1130;-79
2022/06/07 00:18:56;;;;;;;5.37;4.87;;;;;;;14.49;65.00;100762.34;682832;29;764;-79
2022/06/07 00:19:16;;;;;;;5.57;5.00;;;;;;;14.53;64.67;100769.38;682838;28;1605;-79
2022/06/07 00:19:38;;;;;;;5.50;5.00;;;;;;;14.46;64.93;100740.44;683687;28;1460;-79
2022/06/07 00:19:58;;;;;;;5.50;4.88;;;;;;;14.51;64.67;100752.75;683293;28;1347;-79
2022/06/07 00:20:20;;;;;;;5.50;4.95;;;;;;;14.54;64.74;100744.03;682654;29;1152;-79
2022/06/07 00:20:42;;;;;;;6.20;5.60;;;;;;;14.56;64.66;100746.69;683338;28;1217;-79
2022/06/07 00:21:03;;;;;;;6.35;5.75;;;;;;;14.64;64.83;100760.78;679916;29;1578;-79
2022/06/07 00:21:29;;;;;;;6.13;5.53;;;;;;;14.59;64.75;100751.94;680204;28;1466;-79
2022/06/07 00:21:49;;;;;;;6.20;5.60;;;;;;;14.63;64.80;100748.50;680041;29;942;-79
2022/06/07 00:22:11;;;;;;;6.07;5.47;;;;;;;14.67;64.71;100760.78;682763;29;1234;-79
2022/06/07 00:22:32;;;;;;;6.35;5.75;;;;;;;14.70;64.91;100759.94;680806;28;1102;-79
2022/06/07 00:22:53;;;;;;;6.47;5.80;;;;;;;14.70;64.40;100758.22;690726;28;1354;-79
2022/06/07 00:23:16;;;;;;;7.28;6.07;;;;;;;14.76;64.36;100766.13;684936;28;1219;-79
2022/06/07 00:23:36;;;;;;;7.72;6.20;;;;;;;14.78;64.27;100763.53;684004;28;1514;-79
2022/06/07 00:24:00;;;;;;;8.00;6.00;;;;;;;14.78;64.42;100758.28;688057;28;1271;-79
2022/06/07 00:24:20;;;;;;;7.85;5.97;;;;;;;14.76;64.33;100754.75;685343;28;1117;-79
2022/06/07 00:24:41;;;;;;;7.00;5.70;;;;;;;14.75;64.29;100753.88;682555;28;1139;-79
2022/06/07 00:25:05;;;;;;;6.40;5.63;;;;;;;14.78;64.48;100767.06;685270;28;1399;-79
2022/06/07 00:25:26;;;;;;;5.97;5.40;;;;;;;14.76;64.21;100762.66;682311;28;1242;-79
2022/06/07 00:25:50;;;;;;;5.80;5.30;;;;;;;14.69;64.28;100753.81;685859;28;1472;-79
2022/06/07 00:26:11;;;;;;;5.97;5.28;;;;;;;14.78;64.35;100758.28;682233;29;1381;-79
2022/06/07 00:26:33;;;;;;;6.63;5.50;;;;;;;14.69;64.36;100748.53;685336;28;1139;-79
2022/06/07 00:26:54;;;;;;;7.53;5.85;;;;;;;14.68;64.63;100745.94;682801;29;918;-79
2022/06/07 00:27:15;;;;;;;6.55;5.70;;;;;;;14.68;64.73;100746.78;683057;28;1256;-80
2022/06/07 00:27:36;;;;;;;6.60;5.70;;;;;;;14.72;64.60;100753.84;686598;28;1157;-79
2022/06/07 00:27:57;;;;;;;6.70;5.70;;;;;;;14.70;64.55;100738.94;684999;28;1224;-79
2022/06/07 00:28:19;;;;;;;6.88;5.93;;;;;;;14.78;64.43;100764.44;680242;29;1005;-79
2022/06/07 00:28:40;;;;;;;6.65;5.95;;;;;;;14.67;64.54;100737.16;684938;28;1920;-79
2022/06/07 00:29:01;;;;;;;6.53;5.93;;;;;;;14.69;64.42;100734.56;684161;28;1297;-79
2022/06/07 00:29:24;;;;;;;6.63;5.93;;;;;;;14.76;64.58;100749.50;684867;28;1277;-79
2022/06/07 00:29:46;;;;;;;6.55;5.85;;;;;;;14.79;64.29;100757.41;679488;29;1508;-79
2022/06/07 00:30:08;;;;;;;7.15;6.00;;;;;;;14.75;64.30;100748.63;680070;29;1330;-80
2022/06/07 00:30:30;;;;;;;6.82;5.88;;;;;;;14.73;64.29;100755.59;684746;28;1147;-78
2022/06/07 00:30:52;;;;;;;6.30;5.63;;;;;;;14.77;64.42;100743.38;688132;28;1145;-79
2022/06/07 00:31:13;;;;;;;6.40;5.80;;;;;;;14.76;64.24;100753.00;685242;28;1144;-78
2022/06/07 00:31:35;;;;;;;6.72;6.07;;;;;;;14.79;64.46;100749.53;683667;28;1108;-79
2022/06/07 00:31:56;;;;;;;6.72;6.03;;;;;;;14.74;64.23;100744.22;682656;29;1223;-79
2022/06/07 00:32:21;;;;;;;6.50;5.90;;;;;;;14.73;64.25;100737.22;680729;29;1194;-79
2022/06/07 00:32:44;;;;;;;6.40;5.80;;;;;;;14.81;64.17;100745.16;686932;28;1287;-79
2022/06/07 00:33:05;;;;;;;6.47;5.88;;;;;;;14.86;64.15;100763.63;682064;29;1107;-79
2022/06/07 00:33:26;;;;;;;6.20;5.60;;;;;;;14.85;64.38;100749.59;682603;28;1227;-79
2022/06/07 00:33:47;;;;;;;6.40;5.80;;;;;;;14.86;64.16;100750.50;686337;28;1161;-79
2022/06/07 00:34:11;;;;;;;6.95;6.25;;;;;;;14.90;64.08;100755.78;685263;28;1347;-79
2022/06/07 00:34:32;;;;;;;6.80;6.10;;;;;;;14.85;64.25;100746.06;684312;28;1178;-79
2022/06/07 00:34:53;;;;;;;6.50;5.82;;;;;;;14.88;63.97;100747.00;688061;28;929;-79
2022/06/07 00:35:14;;;;;;;6.20;5.60;;;;;;;14.89;64.01;100750.50;685446;28;1163;-80
2022/06/07 00:35:35;;;;;;;6.43;5.75;;;;;;;14.93;64.26;100762.78;681202;29;1408;-79
2022/06/07 00:35:56;;;;;;;6.30;5.70;;;;;;;14.86;64.23;100740.84;687851;28;1192;-79
2022/06/07 00:36:16;;;;;;;6.30;5.70;;;;;;;14.90;64.09;100747.00;682629;28;1247;-79
2022/06/07 00:36:38;;;;;;;6.50;5.90;;;;;;;14.91;64.30;100743.50;684073;28;1159;-79
2022/06/07 00:37:00;;;;;;;6.50;5.90;;;;;;;14.89;64.13;100740.00;680363;29;1182;-79
2022/06/07 00:37:20;;;;;;;7.00;6.07;;;;;;;14.93;64.20;100747.94;685242;28;1461;-79
2022/06/07 00:37:41;;;;;;;7.10;6.00;;;;;;;14.95;63.81;100750.56;685130;28;1159;-79
2022/06/07 00:38:03;;;;;;;7.13;6.35;;;;;;;14.86;64.00;100735.59;679836;28;1266;-79
2022/06/07 00:38:23;;;;;;;7.03;6.28;;;;;;;14.92;64.00;100745.28;680090;29;1002;-79
2022/06/07 00:38:45;;;;;;;6.85;6.15;;;;;;;14.87;64.00;100739.13;683601;28;1289;-79
2022/06/07 00:39:07;;;;;;;7.00;6.30;;;;;;;14.98;64.20;100760.25;682612;29;1179;-79
2022/06/07 00:39:28;;;;;;;6.68;6.07;;;;;;;14.90;64.11;100739.13;684927;28;1205;-79
2022/06/07 00:39:49;;;;;;;6.40;5.80;;;;;;;14.89;64.05;100740.00;685055;28;1258;-79
2022/06/07 00:40:10;;;;;;;6.00;5.45;;;;;;;14.93;64.11;100747.03;682692;28;1359;-80
2022/06/07 00:40:32;;;;;;;6.03;5.50;;;;;;;14.94;64.07;100746.19;680870;28;1149;-79
2022/06/07 00:40:52;;;;;;;5.72;5.20;;;;;;;14.92;63.87;100743.53;682747;29;1284;-78
2022/06/07 00:41:13;;;;;;;6.00;5.40;;;;;;;14.93;63.81;100744.41;687976;28;944;-79
2022/06/07 00:41:35;;;;;;;6.40;5.70;;;;;;;14.85;64.12;100727.69;685952;28;1222;-79
2022/06/07 00:41:55;;;;;;;6.50;5.80;;;;;;;14.91;63.89;100739.16;685458;28;782;-79
2022/06/07 00:42:18;;;;;;;6.68;5.90;;;;;;;14.91;63.94;100739.16;687273;28;1448;-79
2022/06/07 00:42:38;;;;;;;6.80;5.90;;;;;;;14.90;64.04;100731.25;682522;28;1208;-79
2022/06/07 00:42:59;;;;;;;7.63;6.18;;;;;;;14.91;64.06;100733.91;682733;29;1095;-78
2022/06/07 00:43:24;;;;;;;7.63;6.10;;;;;;;14.97;63.95;100742.69;682565;28;1252;-79
2022/06/07 00:44:21;;;;;;;7.65;6.45;;;;;;;14.99;63.97;100746.22;679974;29;1071;-79
2022/06/07 00:44:44;;;;;;;7.80;6.88;;;;;;;14.95;63.83;100740.06;682711;28;1175;-78
2022/06/07 00:45:05;;;;;;;8.15;7.15;;;;;;;14.91;64.02;100733.91;683539;28;1035;-78
2022/06/07 00:45:26;;;;;;;7.88;7.03;;;;;;;14.92;64.01;100742.66;682505;28;1175;-79
2022/06/07 00:45:47;;;;;;;8.00;7.20;;;;;;;14.95;64.01;100742.69;685387;28;1275;-79
2022/06/07 00:46:11;;;;;;;7.90;7.10;;;;;;;14.89;63.99;100737.38;682653;28;1225;-80
2022/06/07 00:46:32;;;;;;;7.75;7.00;;;;;;;14.95;64.19;100742.69;682447;28;1155;-79
2022/06/07 00:47:19;;;;;;;7.90;7.10;;;;;;;14.88;63.98;100727.75;682659;29;748;-79
2022/06/07 00:47:41;;;;;;;9.07;7.55;;;;;;;14.95;64.15;100742.69;687288;28;1159;-79
2022/06/07 00:48:04;;;;;;;9.02;7.80;;;;;;;14.96;63.92;100747.06;680010;29;1310;-79
2022/06/07 00:48:25;;;;;;;8.73;7.63;;;;;;;14.96;64.10;100741.81;678760;29;1916;-79
2022/06/07 00:48:47;;;;;;;8.65;7.50;;;;;;;14.88;63.92;100735.63;677475;29;1508;-79
2022/06/07 00:49:08;;;;;;;9.25;7.30;;;;;;;14.90;64.04;100733.88;679933;28;1247;-79
2022/06/07 00:49:37;;;;;;;10.00;7.55;;;;;;;14.90;64.12;100737.41;679666;29;1231;-79
2022/06/07 00:50:15;;;;;;;10.05;7.35;;;;;;;14.89;64.17;100740.00;677307;29;899;-79
2022/06/07 00:50:43;;;;;;;8.80;7.00;;;;;;;14.90;64.24;100741.75;679976;29;1034;-79
2022/06/07 00:51:08;;;;;;;8.25;7.20;;;;;;;14.82;64.05;100727.66;685076;28;1113;-79
2022/06/07 00:51:29;;;;;;;8.98;7.55;;;;;;;14.84;63.94;100734.72;682612;29;1214;-79
2022/06/07 00:51:49;;;;;;;8.73;7.60;;;;;;;14.82;64.11;100731.19;680370;29;914;-79
2022/06/07 00:52:11;;;;;;;8.25;7.45;;;;;;;14.76;64.26;100718.00;680212;28;1365;-80
2022/06/07 00:52:34;;;;;;;7.70;7.00;;;;;;;14.84;64.10;100732.06;683562;28;1497;-79
2022/06/07 00:52:55;;;;;;;7.80;7.00;;;;;;;14.82;64.22;100732.94;682708;29;859;-79
2022/06/07 00:53:27;;;;;;;8.75;7.40;;;;;;;14.77;64.23;100725.88;683100;28;1293;-79
2022/06/07 00:53:52;;;;;;;8.93;7.72;;;;;;;14.78;64.38;100727.66;682582;29;1143;-79
2022/06/07 00:54:26;;;;;;;8.23;7.43;;;;;;;14.81;64.38;100732.03;679684;29;1013;-79
2022/06/07 00:54:52;;;;;;;8.15;7.35;;;;;;;14.72;64.35;100727.59;687145;28;1184;-79
2022/06/07 00:55:21;;;;;;;8.65;7.80;;;;;;;14.73;64.28;100720.56;685114;28;1128;-79
2022/06/07 00:55:44;;;;;;;8.80;7.90;;;;;;;14.65;64.39;100710.00;687613;28;1112;-79
2022/06/07 00:56:08;;;;;;;8.43;7.53;;;;;;;14.70;64.38;100720.56;685225;28;1381;-79
2022/06/07 00:56:29;;;;;;;8.60;7.70;;;;;;;14.69;64.50;100726.66;682347;28;1408;-79
2022/06/07 00:56:51;;;;;;;9.15;7.60;;;;;;;14.68;64.55;100730.16;678383;29;1358;-79
2022/06/07 00:57:16;;;;;;;9.60;7.57;;;;;;;14.64;64.58;100718.75;680025;29;1065;-79
2022/06/07 00:57:37;;;;;;;8.68;7.25;;;;;;;14.66;64.54;100722.25;685475;28;1648;-79
2022/06/07 00:58:04;;;;;;;8.48;7.30;;;;;;;14.65;64.69;100725.75;685743;28;1204;-79
2022/06/07 00:58:33;;;;;;;8.23;7.32;;;;;;;14.62;64.65;100731.00;685111;28;1206;-79
2022/06/07 00:58:54;;;;;;;8.27;7.13;;;;;;;14.56;64.74;100715.16;682711;29;808;-79
2022/06/07 00:59:15;;;;;;;8.27;7.25;;;;;;;14.65;64.84;100733.63;685108;28;1312;-79
2022/06/07 00:59:37;;;;;;;8.50;7.40;;;;;;;14.64;64.87;100729.25;684652;28;1163;-79
2022/06/07 00:59:58;;;;;;;8.88;7.93;;;;;;;14.58;64.66;100718.69;685357;28;780;-79
2022/06/07 01:00:25;;;;;;;8.52;7.63;;;;;;;14.59;64.98;100726.59;685098;28;1092;-79
2022/06/07 01:00:47;;;;;;;8.95;8.02;;;;;;;14.54;64.87;100712.50;688054;28;827;-79
2022/06/07 01:01:10;;;;;;;9.02;8.07;;;;;;;14.53;64.86;100722.13;685132;28;1284;-79
2022/06/07 01:01:35;;;;;;;8.40;7.50;;;;;;;14.54;64.87;100720.38;684788;28;1513;-79
2022/06/07 01:01:56;;;;;;;7.70;7.00;;;;;;;14.49;65.26;100715.09;685286;28;1353;-79
2022/06/07 01:02:19;;;;;;;8.13;7.28;;;;;;;14.49;65.00;100709.84;682952;28;1353;-79
2022/06/07 01:02:39;;;;;;;8.65;7.68;;;;;;;14.53;64.76;100724.75;685207;28;1363;-79
2022/06/07 01:03:00;;;;;;;9.85;7.80;;;;;;;14.45;64.97;100717.66;683925;28;1142;-79
2022/06/07 01:03:22;;;;;;;9.85;7.97;;;;;;;14.43;64.97;100720.25;679839;28;1296;-79
2022/06/07 01:03:46;;;;;;;10.80;7.45;;;;;;;14.39;65.13;100713.22;683065;28;1249;-79
2022/06/07 01:04:09;;;;;;;9.98;7.47;;;;;;;14.46;65.01;100725.56;677290;29;1103;-79
2022/06/07 01:04:30;;;;;;;9.05;7.03;;;;;;;14.37;65.16;100710.59;682400;28;1267;-79
2022/06/07 01:04:52;;;;;;;8.50;7.60;;;;;;;14.44;65.06;100721.16;685226;28;1351;-79
2022/06/07 01:05:13;;;;;;;8.70;7.70;;;;;;;14.37;65.45;100714.94;687950;28;1094;-79
2022/06/07 01:05:37;;;;;;;8.35;7.38;;;;;;;14.33;65.23;100707.91;685032;28;1290;-79
2022/06/07 01:10:43;;;;;;;8.15;7.25;;;;;;;14.36;65.42;100715.81;684215;28;1666;-79
2022/06/07 01:10:53;;;;;;;11.50;8.93;;;;;;;14.30;65.84;100702.59;682428;28;1149;-79
2022/06/07 01:11:17;;;;;;;11.38;8.95;;;;;;;14.34;65.61;100717.53;682423;28;1249;-79
2022/06/07 01:11:37;;;;;;;10.18;8.80;;;;;;;14.32;65.59;100708.78;684913;28;1260;-79
2022/06/07 01:11:59;;;;;;;9.75;8.60;;;;;;;14.35;65.62;100716.69;682400;28;1251;-79
2022/06/07 01:12:20;;;;;;;10.05;8.60;;;;;;;14.25;65.79;100706.06;682456;29;1442;-79
2022/06/07 01:12:41;;;;;;;10.82;8.80;;;;;;;14.29;66.02;100714.88;682443;28;1145;-79
2022/06/07 01:13:05;;;;;;;10.52;8.70;;;;;;;14.30;65.92;100711.38;682437;28;1506;-79
2022/06/07 01:13:32;;;;;;;9.52;8.30;;;;;;;14.26;65.97;100706.97;679833;28;1195;-79
2022/06/07 01:13:57;;;;;;;8.80;7.85;;;;;;;14.31;65.71;100712.28;683224;28;1209;-78
2022/06/07 01:14:23;;;;;;;9.57;7.95;;;;;;;14.28;65.89;100722.72;684750;28;1114;-79
2022/06/07 01:14:45;;;;;;;10.02;8.10;;;;;;;14.26;66.03;100714.84;687894;28;1072;-79
2022/06/07 01:15:08;;;;;;;10.47;8.47;;;;;;;14.25;66.03;100716.56;688034;28;1030;-79
2022/06/07 01:15:28;;;;;;;9.63;8.20;;;;;;;14.24;65.91;100713.91;682780;28;1243;-79
2022/06/07 01:15:57;;;;;;;9.32;8.32;;;;;;;14.29;65.68;100722.75;679677;29;1410;-79
2022/06/07 01:16:18;;;;;;;9.35;8.35;;;;;;;14.23;65.84;100710.44;681315;29;1626;-79
2022/06/07 01:16:40;;;;;;;9.07;8.15;;;;;;;14.20;65.95;100710.38;687063;28;1123;-79
2022/06/07 01:17:02;;;;;;;8.85;7.95;;;;;;;14.16;66.03;100705.06;687748;28;1220;-80
2022/06/07 01:17:23;;;;;;;8.63;7.72;;;;;;;14.13;65.98;100703.28;681644;29;1437;-78
2022/06/07 01:17:43;;;;;;;9.07;7.93;;;;;;;14.18;66.11;100712.09;682412;28;1177;-78
2022/06/07 01:18:05;;;;;;;9.43;8.00;;;;;;;14.15;66.13;100708.56;679853;28;1323;-79
2022/06/07 01:18:29;;;;;;;10.52;8.20;;;;;;;14.20;66.09;100717.38;682750;28;1159;-79
2022/06/07 01:18:50;;;;;;;10.80;8.35;;;;;;;14.11;66.13;100702.41;682593;28;1287;-79
2022/06/07 01:19:22;;;;;;;9.52;8.40;;;;;;;14.19;65.84;100715.63;682742;28;1198;-79
2022/06/07 01:19:43;;;;;;;9.67;8.60;;;;;;;14.13;66.41;100705.06;684053;28;1287;-79
2022/06/07 01:20:05;;;;;;;10.68;8.77;;;;;;;14.11;66.17;100707.66;684901;28;1725;-79
2022/06/07 01:20:28;;;;;;;10.70;8.88;;;;;;;14.10;66.10;100705.84;683182;28;1296;-79
2022/06/07 01:21:08;;;;;;;11.50;9.30;;;;;;;14.15;66.38;100721.69;682859;28;1633;-79
2022/06/07 01:21:34;;;;;;;10.95;9.50;;;;;;;14.14;66.13;100720.81;682857;28;1163;-79
2022/06/07 01:21:57;;;;;;;10.88;9.13;;;;;;;14.07;66.44;100711.94;685583;28;950;-79
2022/06/07 01:22:19;;;;;;;11.13;9.20;;;;;;;14.11;66.48;100712.91;682928;28;1400;-78
2022/06/07 01:22:39;;;;;;;11.20;9.75;;;;;;;14.03;66.51;100701.38;685066;28;1237;-78
2022/06/07 01:23:00;;;;;;;11.23;9.85;;;;;;;14.06;66.41;100707.56;685224;28;1452;-79
2022/06/07 01:23:22;;;;;;;11.25;9.50;;;;;;;14.06;66.04;100704.03;682374;29;1200;-80
2022/06/07 01:23:45;;;;;;;11.77;9.40;;;;;;;14.06;66.65;100711.91;687533;28;1151;-79
2022/06/07 01:24:07;;;;;;;11.88;9.68;;;;;;;14.03;66.39;100704.00;687470;28;1297;-78
2022/06/07 01:24:33;;;;;;;12.23;9.40;;;;;;;14.02;66.47;100707.50;687851;28;1059;-78
2022/06/07 01:24:57;;;;;;;11.68;8.80;;;;;;;14.00;66.39;100704.00;685300;28;1299;-79
2022/06/07 01:25:18;;;;;;;12.40;9.27;;;;;;;14.03;66.54;100711.88;682504;28;1137;-79
2022/06/07 01:25:40;;;;;;;10.57;9.48;;;;;;;13.99;66.43;100700.47;689594;28;1644;-77
2022/06/07 01:26:16;;;;;;;10.40;9.30;;;;;;;14.01;66.50;100721.50;685103;28;1244;-79
2022/06/07 01:26:37;;;;;;;11.10;9.00;;;;;;;13.98;66.62;100704.84;680062;29;1105;-78
2022/06/07 01:27:01;;;;;;;12.07;9.63;;;;;;;13.94;66.38;100705.66;682500;28;1178;-79
2022/06/07 01:27:22;;;;;;;12.25;10.00;;;;;;;13.98;66.42;100717.97;686612;28;1315;-79
2022/06/07 01:27:42;;;;;;;12.90;10.18;;;;;;;13.97;66.55;100715.31;683086;28;1190;-78
2022/06/07 01:28:04;;;;;;;12.95;10.07;;;;;;;13.92;66.68;100709.13;682029;29;1230;-79
2022/06/07 01:28:25;;;;;;;12.55;9.95;;;;;;;13.96;66.62;100703.94;690513;28;1121;-79
2022/06/07 01:28:46;;;;;;;11.40;9.77;;;;;;;13.91;66.70;100699.50;687607;28;1987;-79
2022/06/07 01:29:08;;;;;;;11.05;9.27;;;;;;;13.91;66.74;100699.50;679920;29;1121;-79
2022/06/07 01:29:29;;;;;;;10.57;9.00;;;;;;;13.92;66.53;100707.38;682343;28;1173;-78
2022/06/07 01:29:49;;;;;;;10.63;8.90;;;;;;;13.91;66.40;100700.38;682378;29;1329;-79
2022/06/07 01:30:12;;;;;;;10.90;9.43;;;;;;;13.86;66.72;100702.06;682447;28;1291;-80
2022/06/07 01:30:32;;;;;;;11.07;9.88;;;;;;;13.85;66.69;100698.53;678729;29;1450;-79
2022/06/07 01:30:57;;;;;;;12.18;10.82;;;;;;;13.84;66.97;100698.53;687759;28;1157;-79
2022/06/07 01:31:18;;;;;;;12.18;10.38;;;;;;;13.92;66.78;100710.00;682411;28;1673;-79
2022/06/07 01:31:39;;;;;;;11.50;10.05;;;;;;;13.86;66.82;100704.69;682440;28;962;-79
2022/06/07 01:32:00;;;;;;;10.57;9.30;;;;;;;13.90;66.65;100719.59;687948;28;1494;-78
2022/06/07 01:32:22;;;;;;;10.77;9.55;;;;;;;13.82;66.73;100702.84;685006;28;1385;-79
2022/06/07 01:32:43;;;;;;;11.20;9.87;;;;;;;13.87;66.94;100713.44;682478;28;1132;-78
2022/06/07 01:33:03;;;;;;;11.23;10.02;;;;;;;13.80;66.76;100707.22;682512;29;1177;-78
2022/06/07 01:33:24;;;;;;;11.13;9.93;;;;;;;13.77;66.83;100697.56;682457;28;1110;-79
2022/06/07 01:33:45;;;;;;;10.70;9.60;;;;;;;13.76;66.99;100698.41;684473;28;1169;-79
2022/06/07 01:34:06;;;;;;;11.43;10.10;;;;;;;13.84;67.18;100711.66;685151;28;1521;-78
2022/06/07 01:34:27;;;;;;;11.50;10.30;;;;;;;13.76;67.22;100702.81;679665;29;1100;-79
2022/06/07 01:34:48;;;;;;;12.68;10.45;;;;;;;13.75;67.07;100698.44;684773;28;1175;-79
2022/06/07 01:35:09;;;;;;;12.10;10.18;;;;;;;13.79;67.31;100705.47;682239;29;1060;-79
2022/06/07 01:35:30;;;;;;;12.82;10.50;;;;;;;13.80;67.15;100709.84;683303;28;1391;-78
2022/06/07 01:36:02;;;;;;;12.27;10.57;;;;;;;13.77;67.40;100702.81;680189;28;1586;-79
2022/06/07 01:36:23;;;;;;;12.73;11.32;;;;;;;13.79;67.36;100700.22;682374;29;945;-79
2022/06/07 01:36:45;;;;;;;13.18;11.50;;;;;;;13.80;67.30;100707.22;682444;28;1325;-78
2022/06/07 01:37:05;;;;;;;13.80;11.20;;;;;;;13.74;67.39;100702.78;683929;28;1236;-78
2022/06/07 01:37:27;;;;;;;13.52;10.82;;;;;;;13.79;67.36;100708.06;682700;28;1230;-79
2022/06/07 01:37:48;;;;;;;14.10;11.13;;;;;;;13.77;67.52;100700.19;685014;28;1401;-79
2022/06/07 01:38:09;;;;;;;13.88;11.68;;;;;;;13.76;67.51;100700.19;684493;28;1032;-79
2022/06/07 01:38:34;;;;;;;15.00;12.43;;;;;;;13.74;67.51;100700.16;686197;28;1208;-79
2022/06/07 01:42:13;;;;;;;15.30;12.65;;;;;;;13.83;67.70;100709.91;679379;29;1158;-79
2022/06/07 01:42:34;;;;;;;15.40;12.45;;;;;;;13.78;67.71;100698.44;680854;28;1078;-78
2022/06/07 01:42:55;;;;;;;15.43;12.80;;;;;;;13.75;67.51;100694.03;685374;28;827;-78
2022/06/07 01:43:16;;;;;;;14.55;12.68;;;;;;;13.73;67.74;100687.00;682467;29;1282;-78
2022/06/07 01:43:37;;;;;;;14.23;12.43;;;;;;;13.77;67.43;100701.94;682722;28;1071;-79
2022/06/07 01:43:59;;;;;;;14.23;12.37;;;;;;;13.74;67.46;100694.91;685266;28;1326;-78
2022/06/07 01:44:40;;;;;;;15.45;13.00;;;;;;;13.73;67.70;100689.63;682537;29;1345;-79
2022/06/07 01:45:03;;;;;;;16.08;13.20;;;;;;;13.71;67.78;100698.34;685131;28;1217;-79
2022/06/07 01:45:25;;;;;;;15.60;12.98;;;;;;;13.77;67.61;100697.56;682504;28;1416;-79
2022/06/07 01:45:45;;;;;;;15.48;12.63;;;;;;;13.80;67.59;100702.88;682350;28;1082;-79
2022/06/07 01:46:06;;;;;;;15.38;12.80;;;;;;;13.83;67.55;100702.03;685145;28;1082;-79
2022/06/07 01:46:27;;;;;;;15.93;12.60;;;;;;;13.79;67.52;100698.47;682620;28;1122;-79
2022/06/07 01:46:50;;;;;;;16.15;12.65;;;;;;;13.86;67.51;100709.94;685152;28;847;-78
2022/06/07 01:47:17;;;;;;;16.45;12.70;;;;;;;13.81;67.53;100701.09;682444;29;1273;-78
2022/06/07 01:47:43;;;;;;;16.50;12.45;;;;;;;13.84;67.35;100701.16;682571;28;1205;-79
2022/06/07 01:48:04;;;;;;;16.90;12.32;;;;;;;13.80;67.32;100692.38;682506;29;1320;-79
2022/06/07 01:48:25;;;;;;;16.70;12.80;;;;;;;13.81;67.45;100702.00;682617;28;1324;-79
2022/06/07 01:48:48;;;;;;;17.02;13.05;;;;;;;13.88;67.09;100705.56;684984;28;1918;-78
2022/06/07 01:49:09;;;;;;;16.45;12.80;;;;;;;13.81;67.19;100694.13;685033;28;1276;-78
2022/06/07 01:49:30;;;;;;;15.05;12.35;;;;;;;13.85;67.18;100706.41;681923;29;1264;-78
2022/06/07 01:49:51;;;;;;;14.73;12.50;;;;;;;13.77;67.20;100687.06;682436;29;1146;-78
2022/06/07 01:50:12;;;;;;;14.18;12.00;;;;;;;13.85;67.19;100711.66;682313;29;1278;-79
2022/06/07 01:50:33;;;;;;;15.77;12.48;;;;;;;13.78;67.23;100694.06;683231;28;1159;-78
2022/06/07 01:51:00;;;;;;;15.07;12.27;;;;;;;13.85;67.23;100709.03;680558;28;1303;-78
2022/06/07 01:51:21;;;;;;;18.25;12.32;;;;;;;13.77;67.25;100691.44;679601;29;1242;-79
2022/06/07 01:51:42;;;;;;;17.85;11.95;;;;;;;13.78;67.20;100695.81;681373;29;1365;-79
2022/06/07 01:52:05;;;;;;;17.30;12.32;;;;;;;13.76;67.48;100689.69;681164;28;1197;-79
2022/06/07 01:52:31;;;;;;;17.42;12.70;;;;;;;13.73;67.38;100685.28;682695;28;1371;-78
2022/06/07 01:52:56;;;;;;;15.27;12.60;;;;;;;13.79;67.56;100700.22;685127;28;1230;-78
2022/06/07 01:53:22;;;;;;;14.85;12.18;;;;;;;13.77;67.54;100699.31;681007;29;1139;-78
2022/06/07 01:53:43;;;;;;;15.53;12.07;;;;;;;13.75;67.27;100691.41;682040;29;1709;-78
2022/06/07 01:54:04;;;;;;;14.73;11.65;;;;;;;13.71;67.55;100685.25;679891;29;1165;-79
2022/06/07 01:54:25;;;;;;;14.15;11.65;;;;;;;13.73;67.35;100694.88;682396;29;1322;-79
2022/06/07 01:54:48;;;;;;;14.32;11.82;;;;;;;13.77;67.43;100697.56;685190;28;1194;-78
2022/06/07 01:55:10;;;;;;;15.57;12.27;;;;;;;13.73;67.42;100695.78;679735;29;1270;-78